NKS570 KLAX-KIAH
Flight info
| Callsign | NKS570 |
|---|---|
| Flight time | N/A |
| Altitude | 35000 |
| Route | DOTSS2 CNERY DCT BLH DCT SPTFR Q4 FUSCO DCT DIESL TTORO3 |
| Aircraft | A320/M-SDE3FGHIRWY/LB1 |
Departure
| Time | N/A |
|---|---|
| Airport | Los Angeles International Airport (KLAX) |
Arrival
| Time | 2026-05-08 03:16 |
|---|---|
| Airport | George Bush Intercontinental Airport (KIAH) |
| Time | Latitude | Longitude | Altitude | Speed | Heading |
|---|---|---|---|---|---|
| 2026-05-08 03:04 | 30.18512 | -95.97074 | 9258 ft | 303 kts | 165° |
| 2026-05-08 03:04 | 30.16491 | -95.96331 | 8450 ft | 305 kts | 164° |
| 2026-05-08 03:04 | 30.14485 | -95.95594 | 7956 ft | 297 kts | 164° |
| 2026-05-08 03:05 | 30.12579 | -95.94894 | 7812 ft | 276 kts | 164° |
| 2026-05-08 03:05 | 30.10821 | -95.94244 | 7752 ft | 255 kts | 164° |
| 2026-05-08 03:05 | 30.09200 | -95.93643 | 7725 ft | 238 kts | 164° |
| 2026-05-08 03:05 | 30.07657 | -95.93070 | 7675 ft | 234 kts | 164° |
| 2026-05-08 03:06 | 30.06102 | -95.92493 | 7613 ft | 233 kts | 164° |
| 2026-05-08 03:06 | 30.04571 | -95.91927 | 7558 ft | 232 kts | 163° |
| 2026-05-08 03:06 | 30.03060 | -95.91279 | 7505 ft | 233 kts | 153° |
| 2026-05-08 03:06 | 30.01783 | -95.90149 | 7456 ft | 235 kts | 134° |
| 2026-05-08 03:07 | 30.00803 | -95.88635 | 7390 ft | 236 kts | 127° |
| 2026-05-08 03:07 | 29.99867 | -95.87078 | 7329 ft | 237 kts | 121° |
| 2026-05-08 03:07 | 29.99291 | -95.85300 | 7269 ft | 239 kts | 102° |
| 2026-05-08 03:07 | 29.99208 | -95.83375 | 7201 ft | 241 kts | 91° |
| 2026-05-08 03:08 | 29.99223 | -95.81440 | 7131 ft | 240 kts | 92° |
| 2026-05-08 03:08 | 29.99234 | -95.79514 | 7067 ft | 240 kts | 92° |
| 2026-05-08 03:08 | 29.99242 | -95.77595 | 7016 ft | 239 kts | 92° |
| 2026-05-08 03:08 | 29.99248 | -95.75670 | 6900 ft | 241 kts | 92° |
| 2026-05-08 03:09 | 29.99253 | -95.73748 | 6541 ft | 244 kts | 92° |
| 2026-05-08 03:09 | 29.99256 | -95.71774 | 6083 ft | 249 kts | 92° |
| 2026-05-08 03:09 | 29.99260 | -95.69803 | 5699 ft | 243 kts | 92° |
| 2026-05-08 03:09 | 29.99267 | -95.67885 | 5375 ft | 234 kts | 92° |
| 2026-05-08 03:10 | 29.99273 | -95.66021 | 5081 ft | 232 kts | 92° |
| 2026-05-08 03:10 | 29.99279 | -95.64157 | 4780 ft | 231 kts | 92° |
| 2026-05-08 03:10 | 29.99285 | -95.62309 | 4523 ft | 230 kts | 92° |
| 2026-05-08 03:10 | 29.99291 | -95.60465 | 4221 ft | 229 kts | 92° |
| 2026-05-08 03:11 | 29.99296 | -95.58630 | 3925 ft | 228 kts | 92° |
| 2026-05-08 03:11 | 29.99301 | -95.56805 | 3634 ft | 227 kts | 92° |
| 2026-05-08 03:11 | 29.99306 | -95.54988 | 3348 ft | 226 kts | 92° |
| 2026-05-08 03:11 | 29.99310 | -95.53178 | 3055 ft | 224 kts | 92° |
| 2026-05-08 03:12 | 29.99315 | -95.51392 | 2756 ft | 219 kts | 92° |
| 2026-05-08 03:12 | 29.99319 | -95.49706 | 2480 ft | 206 kts | 91° |
| 2026-05-08 03:12 | 29.99322 | -95.48107 | 2216 ft | 193 kts | 91° |
| 2026-05-08 03:12 | 29.99325 | -95.46626 | 1986 ft | 175 kts | 90° |
| 2026-05-08 03:13 | 29.99327 | -95.45315 | 1788 ft | 151 kts | 90° |
| 2026-05-08 03:13 | 29.99329 | -95.44148 | 1574 ft | 141 kts | 89° |
| 2026-05-08 03:13 | 29.99331 | -95.43039 | 1389 ft | 136 kts | 88° |
| 2026-05-08 03:13 | 29.99332 | -95.41954 | 1212 ft | 135 kts | 89° |
| 2026-05-08 03:14 | 29.99334 | -95.40886 | 1035 ft | 136 kts | 88° |
| 2026-05-08 03:14 | 29.99338 | -95.39788 | 832 ft | 137 kts | 86° |
| 2026-05-08 03:14 | 29.99342 | -95.38676 | 673 ft | 140 kts | 86° |
| 2026-05-08 03:14 | 29.99346 | -95.37554 | 496 ft | 140 kts | 87° |
| 2026-05-08 03:15 | 29.99343 | -95.36417 | 324 ft | 142 kts | 88° |
| 2026-05-08 03:15 | 29.99341 | -95.35284 | 131 ft | 140 kts | 87° |
| 2026-05-08 03:15 | 29.99342 | -95.34266 | 95 ft | 110 kts | 90° |
| 2026-05-08 03:15 | 29.99344 | -95.33583 | 101 ft | 61 kts | 90° |
| 2026-05-08 03:16 | 29.99306 | -95.33263 | 102 ft | 33 kts | 117° |
| 2026-05-08 03:16 | 29.99219 | -95.33140 | 101 ft | 14 kts | 168° |
| 2026-05-08 03:16 | 29.99179 | -95.33227 | 101 ft | 15 kts | 271° |
| 2026-05-08 03:16 | 29.99180 | -95.33356 | 101 ft | 17 kts | 269° |
| 2026-05-08 03:17 | 29.99179 | -95.33506 | 100 ft | 20 kts | 270° |
| 2026-05-08 03:17 | 29.99179 | -95.33681 | 99 ft | 25 kts | 269° |
| 2026-05-08 03:17 | 29.99179 | -95.33893 | 99 ft | 27 kts | 269° |
| 2026-05-08 03:17 | 29.99179 | -95.34117 | 98 ft | 29 kts | 271° |
| 2026-05-08 03:18 | 29.99179 | -95.34345 | 97 ft | 28 kts | 270° |
| 2026-05-08 03:18 | 29.99179 | -95.34579 | 98 ft | 30 kts | 270° |
| 2026-05-08 03:18 | 29.99177 | -95.34818 | 96 ft | 29 kts | 269° |
| 2026-05-08 03:18 | 29.99176 | -95.35046 | 95 ft | 25 kts | 269° |
| 2026-05-08 03:19 | 29.99176 | -95.35224 | 95 ft | 14 kts | 269° |
| 2026-05-08 03:19 | 29.99162 | -95.35272 | 96 ft | 8 kts | 216° |
| 2026-05-08 03:19 | 29.99060 | -95.35278 | 96 ft | 21 kts | 178° |
| 2026-05-08 03:19 | 29.98902 | -95.35277 | 99 ft | 24 kts | 180° |
| 2026-05-08 03:20 | 29.98732 | -95.35278 | 102 ft | 25 kts | 181° |
| 2026-05-08 03:20 | 29.98548 | -95.35276 | 100 ft | 27 kts | 178° |
| 2026-05-08 03:20 | 29.98384 | -95.35199 | 100 ft | 21 kts | 147° |
| 2026-05-08 03:20 | 29.98380 | -95.35067 | 99 ft | 19 kts | 74° |
| 2026-05-08 03:21 | 29.98403 | -95.34947 | 99 ft | 10 kts | 65° |
| 2026-05-08 03:21 | 29.98441 | -95.34921 | 99 ft | 3 kts | 6° |
| 2026-05-08 03:21 | 29.98459 | -95.34928 | 99 ft | 1 kts | 336° |
| 2026-05-08 03:21 | 29.98466 | -95.34931 | 99 ft | 0 kts | 336° |